createdAt,value
2022-07-31T00:31:34.888Z,1008.84
2022-07-31T00:32:15.633Z,1008.8
2022-07-31T00:32:56.071Z,1008.79
2022-07-31T00:33:36.570Z,1008.78
2022-07-31T00:34:17.035Z,1008.76
2022-07-31T00:34:57.524Z,1008.76
2022-07-31T00:35:38.009Z,1008.75
2022-07-31T00:36:18.486Z,1008.76
2022-07-31T00:36:58.993Z,1008.77
2022-07-31T00:37:40.143Z,1008.76
2022-07-31T00:38:27.711Z,1008.71
2022-07-31T00:39:00.458Z,1008.72
2022-07-31T00:39:40.889Z,1008.71
2022-07-31T00:40:21.390Z,1008.67
2022-07-31T00:41:01.982Z,1008.64
2022-07-31T00:41:42.529Z,1008.63
2022-07-31T00:42:22.974Z,1008.6
2022-07-31T00:43:03.405Z,1008.64
2022-07-31T00:43:43.873Z,1008.56
2022-07-31T00:44:24.360Z,1008.61
2022-07-31T00:45:04.856Z,1008.57
2022-07-31T00:45:45.333Z,1008.59
2022-07-31T00:46:25.800Z,1008.59
2022-07-31T00:47:06.549Z,1008.58
2022-07-31T00:47:46.772Z,1008.59
2022-07-31T00:48:27.454Z,1008.6
2022-07-31T00:49:07.726Z,1008.59
2022-07-31T00:49:48.207Z,1008.59
2022-07-31T00:51:09.176Z,1008.59
2022-07-31T00:51:49.663Z,1008.57
2022-07-31T00:52:30.207Z,1008.57
2022-07-31T00:53:10.587Z,1008.57
2022-07-31T00:53:51.125Z,1008.61
2022-07-31T00:54:31.602Z,1008.58
2022-07-31T00:55:12.108Z,1008.56
2022-07-31T00:55:52.522Z,1008.56
2022-07-31T00:56:32.990Z,1008.56
2022-07-31T00:57:13.458Z,1008.54
2022-07-31T00:57:53.963Z,1008.54
2022-07-31T00:58:34.408Z,1008.55
2022-07-31T00:59:14.904Z,1008.54
2022-07-31T00:59:55.381Z,1008.55
2022-07-31T01:00:35.909Z,1008.53
2022-07-31T01:01:16.369Z,1008.54
2022-07-31T01:01:56.861Z,1008.51
2022-07-31T01:02:37.238Z,1008.52
2022-07-31T01:03:17.723Z,1008.51
2022-07-31T01:03:58.185Z,1008.51
2022-07-31T01:04:41.781Z,1008.48
2022-07-31T01:05:19.167Z,1008.5
2022-07-31T01:06:42.641Z,1008.46
2022-07-31T01:07:20.609Z,1008.46
2022-07-31T01:08:01.076Z,1008.46
2022-07-31T01:08:41.541Z,1008.47
2022-07-31T01:09:22.050Z,1008.46
2022-07-31T01:10:02.514Z,1008.44
2022-07-31T01:10:43.060Z,1008.48
2022-07-31T01:11:23.585Z,1008.45
2022-07-31T01:12:04.031Z,1008.44
2022-07-31T01:12:44.542Z,1008.47
2022-07-31T01:13:25.103Z,1008.42
2022-07-31T01:14:05.537Z,1008.42
2022-07-31T01:14:46.089Z,1008.46
2022-07-31T01:15:26.510Z,1008.45
2022-07-31T01:16:07.039Z,1008.39
2022-07-31T01:16:47.530Z,1008.4
2022-07-31T01:17:27.959Z,1008.39
2022-07-31T01:18:08.514Z,1008.4
2022-07-31T01:18:48.969Z,1008.42
2022-07-31T01:19:37.863Z,1008.41
2022-07-31T01:20:09.918Z,1008.4
2022-07-31T01:20:50.422Z,1008.41
2022-07-31T01:21:30.879Z,1008.38
2022-07-31T01:22:32.839Z,1008.39
2022-07-31T01:22:51.815Z,1008.42
2022-07-31T01:23:32.324Z,1008.44
2022-07-31T01:24:12.772Z,1008.43
2022-07-31T01:24:53.235Z,1008.37
2022-07-31T01:25:33.696Z,1008.37
2022-07-31T01:26:14.168Z,1008.38
2022-07-31T01:26:54.715Z,1008.38
2022-07-31T01:27:49.129Z,1008.4
2022-07-31T01:28:15.622Z,1008.41
2022-07-31T01:28:56.081Z,1008.39
2022-07-31T01:30:17.013Z,1008.38
2022-07-31T01:31:10.983Z,1008.38
2022-07-31T01:31:37.954Z,1008.36
2022-07-31T01:32:18.446Z,1008.36
2022-07-31T01:32:58.933Z,1008.35
2022-07-31T01:33:39.417Z,1008.36
2022-07-31T01:34:19.900Z,1008.35
2022-07-31T01:35:00.381Z,1008.34
2022-07-31T01:35:40.901Z,1008.36
2022-07-31T01:36:21.422Z,1008.33
2022-07-31T01:37:02.082Z,1008.34
2022-07-31T01:37:42.319Z,1008.33
2022-07-31T01:38:22.784Z,1008.32
2022-07-31T01:39:03.235Z,1008.33
2022-07-31T01:39:43.740Z,1008.32
2022-07-31T01:40:24.211Z,1008.3
2022-07-31T01:41:04.695Z,1008.34
2022-07-31T01:41:45.150Z,1008.28
2022-07-31T01:42:25.649Z,1008.29
2022-07-31T01:43:06.192Z,1008.23
2022-07-31T01:43:46.611Z,1008.3
2022-07-31T01:44:27.090Z,1008.28
2022-07-31T01:45:48.064Z,1008.28
2022-07-31T01:46:28.559Z,1008.31
2022-07-31T01:47:09.049Z,1008.27
2022-07-31T01:47:49.556Z,1008.3
2022-07-31T01:48:30.057Z,1008.3
2022-07-31T01:49:10.561Z,1008.34
2022-07-31T01:49:50.993Z,1008.3
2022-07-31T01:50:42.006Z,1008.32
2022-07-31T01:51:11.917Z,1008.33
2022-07-31T01:51:52.684Z,1008.3
2022-07-31T01:52:32.896Z,1008.33
2022-07-31T01:53:13.409Z,1008.34
2022-07-31T01:53:53.885Z,1008.3
2022-07-31T01:54:34.419Z,1008.31
2022-07-31T01:55:56.785Z,1008.34
2022-07-31T01:56:35.839Z,1008.31
2022-07-31T01:57:17.389Z,1008.33
2022-07-31T01:57:56.805Z,1008.32
2022-07-31T01:58:37.315Z,1008.35
2022-07-31T01:59:20.791Z,1008.37
2022-07-31T01:59:58.227Z,1008.37
2022-07-31T02:00:38.747Z,1008.33
2022-07-31T02:01:19.410Z,1008.33
2022-07-31T02:01:59.847Z,1008.35
2022-07-31T02:02:40.358Z,1008.34
2022-07-31T02:03:20.650Z,1008.33
2022-07-31T02:04:01.254Z,1008.33
2022-07-31T02:04:41.594Z,1008.33
2022-07-31T02:05:22.090Z,1008.33
2022-07-31T02:06:03.237Z,1008.33
2022-07-31T02:06:43.083Z,1008.32
2022-07-31T02:07:23.543Z,1008.3
2022-07-31T02:08:04.014Z,1008.27
2022-07-31T02:08:44.505Z,1008.31
2022-07-31T02:09:25.023Z,1008.27
2022-07-31T02:10:05.468Z,1008.26
2022-07-31T02:10:45.947Z,1008.23
2022-07-31T02:11:26.429Z,1008.23
2022-07-31T02:12:09.593Z,1008.24
2022-07-31T02:12:47.448Z,1008.25
2022-07-31T02:14:08.380Z,1008.19
2022-07-31T02:14:48.856Z,1008.23
2022-07-31T02:15:29.351Z,1008.22
2022-07-31T02:16:09.835Z,1008.24
2022-07-31T02:16:50.321Z,1008.27
2022-07-31T02:17:30.797Z,1008.26
2022-07-31T02:18:11.249Z,1008.25
2022-07-31T02:18:51.715Z,1008.32
2022-07-31T02:19:32.223Z,1008.33
2022-07-31T02:20:12.711Z,1008.36
2022-07-31T02:20:53.140Z,1008.38
2022-07-31T02:21:33.605Z,1008.39
2022-07-31T02:22:14.130Z,1008.43
2022-07-31T02:25:12.704Z,1008.5
2022-07-31T02:25:53.163Z,1008.48
2022-07-31T02:26:33.670Z,1008.49
2022-07-31T02:27:53.535Z,1008.46
2022-07-31T02:27:57.423Z,1008.49
2022-07-31T02:28:35.110Z,1008.46
2022-07-31T02:29:19.259Z,1008.47
2022-07-31T02:29:56.101Z,1008.45
2022-07-31T02:30:38.676Z,1008.45
2022-07-31T02:31:17.046Z,1008.43
2022-07-31T02:32:09.370Z,1008.44
2022-07-31T02:32:37.954Z,1008.43
2022-07-31T02:33:18.409Z,1008.37
2022-07-31T02:33:58.892Z,1008.4
2022-07-31T02:34:39.330Z,1008.42
2022-07-31T02:35:19.847Z,1008.41
2022-07-31T02:36:00.300Z,1008.39
2022-07-31T02:36:40.770Z,1008.4
2022-07-31T02:37:21.244Z,1008.42
2022-07-31T02:38:01.741Z,1008.43
2022-07-31T02:38:42.228Z,1008.41
2022-07-31T02:39:24.721Z,1008.47
2022-07-31T02:40:03.173Z,1008.45
2022-07-31T02:40:43.605Z,1008.46
2022-07-31T02:41:24.039Z,1008.46
2022-07-31T02:42:04.835Z,1008.44
2022-07-31T02:42:45.010Z,1008.44
2022-07-31T02:43:25.572Z,1008.44
2022-07-31T02:44:05.994Z,1008.46
2022-07-31T02:44:46.464Z,1008.44
2022-07-31T02:45:26.935Z,1008.42
2022-07-31T02:46:07.458Z,1008.45
2022-07-31T02:46:47.910Z,1008.45
2022-07-31T02:47:28.369Z,1008.43
2022-07-31T02:48:08.820Z,1008.46
2022-07-31T02:48:49.372Z,1008.43
2022-07-31T02:49:29.869Z,1008.44
2022-07-31T02:50:10.308Z,1008.41
2022-07-31T02:50:50.776Z,1008.38
2022-07-31T02:51:31.275Z,1008.39
2022-07-31T02:52:11.785Z,1008.33
2022-07-31T02:52:52.224Z,1008.36
2022-07-31T02:53:32.715Z,1008.32
2022-07-31T02:54:13.186Z,1008.34
2022-07-31T02:54:53.667Z,1008.34
2022-07-31T02:55:34.096Z,1008.3
2022-07-31T02:56:55.031Z,1008.29
2022-07-31T02:57:35.546Z,1008.27
2022-07-31T02:58:16.029Z,1008.29
2022-07-31T02:58:56.492Z,1008.3
2022-07-31T02:59:36.981Z,1008.28
2022-07-31T03:00:17.450Z,1008.29
2022-07-31T03:00:58.000Z,1008.29
2022-07-31T03:01:38.347Z,1008.26
2022-07-31T03:02:18.815Z,1008.28
2022-07-31T03:02:59.286Z,1008.29
2022-07-31T03:04:20.221Z,1008.25
2022-07-31T03:05:00.717Z,1008.3
2022-07-31T03:05:41.147Z,1008.26
2022-07-31T03:06:21.618Z,1008.24
2022-07-31T03:07:02.073Z,1008.29
2022-07-31T03:07:42.559Z,1008.27
2022-07-31T03:08:23.010Z,1008.25
2022-07-31T03:09:04.251Z,1008.28
2022-07-31T03:09:44.716Z,1008.25
2022-07-31T03:10:25.232Z,1008.27
2022-07-31T03:11:05.672Z,1008.25
2022-07-31T03:11:46.121Z,1008.24
2022-07-31T03:12:26.581Z,1008.29
2022-07-31T03:13:07.056Z,1008.25
2022-07-31T03:13:47.541Z,1008.24
2022-07-31T03:14:32.687Z,1008.21
2022-07-31T03:15:08.488Z,1008.24
2022-07-31T03:15:51.032Z,1008.27
2022-07-31T03:16:29.380Z,1008.23
2022-07-31T03:17:09.888Z,1008.25
2022-07-31T03:17:50.365Z,1008.26
2022-07-31T03:18:30.829Z,1008.26
2022-07-31T03:19:11.311Z,1008.26
2022-07-31T03:19:51.761Z,1008.24
2022-07-31T03:20:32.254Z,1008.24
2022-07-31T03:21:12.739Z,1008.24
2022-07-31T03:21:53.210Z,1008.24
2022-07-31T03:22:33.731Z,1008.26
2022-07-31T03:23:14.167Z,1008.25
2022-07-31T03:24:35.174Z,1008.25
2022-07-31T03:25:19.988Z,1008.29
2022-07-31T03:25:56.106Z,1008.3
2022-07-31T03:26:36.675Z,1008.31
2022-07-31T03:27:17.137Z,1008.27
2022-07-31T03:27:57.551Z,1008.32
2022-07-31T03:28:38.021Z,1008.33
2022-07-31T03:29:36.063Z,1008.34
2022-07-31T03:29:58.938Z,1008.34
2022-07-31T03:30:39.414Z,1008.3
2022-07-31T03:32:00.745Z,1008.33
2022-07-31T03:32:40.840Z,1008.33
2022-07-31T03:33:21.321Z,1008.38
2022-07-31T03:34:01.810Z,1008.35
2022-07-31T03:34:42.247Z,1008.36
2022-07-31T03:35:22.732Z,1008.34
2022-07-31T03:36:03.216Z,1008.34
2022-07-31T03:36:43.693Z,1008.3
2022-07-31T03:37:24.154Z,1008.33
2022-07-31T03:38:32.840Z,1008.3
2022-07-31T03:38:48.897Z,1008.27
2022-07-31T03:39:25.605Z,1008.29
2022-07-31T03:40:06.066Z,1008.26
2022-07-31T03:40:46.514Z,1008.27
2022-07-31T03:42:07.620Z,1008.24
2022-07-31T03:42:47.969Z,1008.24
2022-07-31T03:43:28.480Z,1008.27
2022-07-31T03:44:08.965Z,1008.28
2022-07-31T03:44:49.411Z,1008.25
2022-07-31T03:45:29.861Z,1008.22
2022-07-31T03:46:10.311Z,1008.24
2022-07-31T03:46:50.800Z,1008.23
2022-07-31T03:47:31.234Z,1008.22
2022-07-31T03:48:11.687Z,1008.25
2022-07-31T03:49:32.699Z,1008.24
2022-07-31T03:50:13.096Z,1008.26
2022-07-31T03:50:53.621Z,1008.2
2022-07-31T03:51:34.099Z,1008.29
2022-07-31T03:52:14.791Z,1008.28
2022-07-31T03:52:55.009Z,1008.26
2022-07-31T03:53:35.502Z,1008.25
2022-07-31T03:54:15.976Z,1008.25
2022-07-31T03:54:56.442Z,1008.23
2022-07-31T03:55:36.891Z,1008.26
2022-07-31T03:56:57.841Z,1008.27
2022-07-31T03:57:38.357Z,1008.28
2022-07-31T03:58:18.796Z,1008.26
2022-07-31T03:58:59.257Z,1008.3
2022-07-31T03:59:40.779Z,1008.24
2022-07-31T04:00:20.231Z,1008.27
2022-07-31T04:01:00.727Z,1008.26
2022-07-31T04:01:57.078Z,1008.26
2022-07-31T04:02:21.622Z,1008.3
2022-07-31T04:03:02.102Z,1008.27
2022-07-31T04:03:42.511Z,1008.22
2022-07-31T04:04:22.977Z,1008.28
2022-07-31T04:05:06.826Z,1008.3
2022-07-31T04:05:43.936Z,1008.28
2022-07-31T04:07:04.977Z,1008.31
2022-07-31T04:07:45.458Z,1008.3
2022-07-31T04:08:25.926Z,1008.28
2022-07-31T04:09:07.936Z,1008.29
2022-07-31T04:09:46.846Z,1008.24
2022-07-31T04:10:27.292Z,1008.24
2022-07-31T04:11:07.786Z,1008.24
2022-07-31T04:11:48.258Z,1008.27
2022-07-31T04:12:28.746Z,1008.22
2022-07-31T04:13:09.208Z,1008.25
2022-07-31T04:13:49.708Z,1008.25
2022-07-31T04:14:30.180Z,1008.19
2022-07-31T04:15:10.625Z,1008.23
2022-07-31T04:15:51.090Z,1008.26
2022-07-31T04:16:31.571Z,1008.23
2022-07-31T04:17:12.069Z,1008.26
2022-07-31T04:17:52.517Z,1008.25
2022-07-31T04:18:33.070Z,1008.23
2022-07-31T04:19:13.502Z,1008.25
2022-07-31T04:19:54.010Z,1008.21
2022-07-31T04:20:34.476Z,1008.23
2022-07-31T04:21:14.949Z,1008.26
2022-07-31T04:21:55.414Z,1008.26
2022-07-31T04:22:35.911Z,1008.23
2022-07-31T04:23:16.400Z,1008.2
2022-07-31T04:24:37.298Z,1008.19
2022-07-31T04:25:17.742Z,1008.2
2022-07-31T04:25:58.269Z,1008.2
2022-07-31T04:26:38.733Z,1008.2
2022-07-31T04:27:19.218Z,1008.17
2022-07-31T04:27:59.711Z,1008.16
2022-07-31T04:28:40.166Z,1008.17
2022-07-31T04:29:20.625Z,1008.14
2022-07-31T04:30:01.126Z,1008.16
2022-07-31T04:30:41.544Z,1008.17
2022-07-31T04:31:22.670Z,1008.14
2022-07-31T04:32:03.466Z,1008.16
2022-07-31T04:32:43.649Z,1008.16
2022-07-31T04:33:24.128Z,1008.13
2022-07-31T04:34:04.609Z,1008.14
2022-07-31T04:34:45.031Z,1008.17
2022-07-31T04:35:25.527Z,1008.17
2022-07-31T04:36:05.975Z,1008.17
2022-07-31T04:36:47.336Z,1008.14
2022-07-31T04:37:26.956Z,1008.15
2022-07-31T04:38:07.408Z,1008.11
2022-07-31T04:38:47.882Z,1008.16
2022-07-31T04:39:28.412Z,1008.13
2022-07-31T04:40:08.843Z,1008.15
2022-07-31T04:40:49.361Z,1008.17
2022-07-31T04:41:29.829Z,1008.16
2022-07-31T04:42:11.519Z,1008.19
2022-07-31T04:42:50.745Z,1008.14
2022-07-31T04:43:31.187Z,1008.18
2022-07-31T04:44:11.645Z,1008.18
2022-07-31T04:44:52.112Z,1008.22
2022-07-31T04:45:32.613Z,1008.26
2022-07-31T04:46:17.115Z,1008.27
2022-07-31T04:46:53.600Z,1008.24
2022-07-31T04:47:34.084Z,1008.27
2022-07-31T04:48:14.489Z,1008.26
2022-07-31T04:48:54.991Z,1008.24
2022-07-31T04:49:35.463Z,1008.26
2022-07-31T04:50:15.958Z,1008.23
2022-07-31T04:50:56.390Z,1008.28
2022-07-31T04:51:36.848Z,1008.25
2022-07-31T04:52:17.354Z,1008.27
2022-07-31T04:52:57.837Z,1008.28
2022-07-31T04:53:38.405Z,1008.27
2022-07-31T04:54:18.762Z,1008.28
2022-07-31T04:54:59.196Z,1008.3
2022-07-31T04:55:39.645Z,1008.27
2022-07-31T04:56:20.129Z,1008.27
2022-07-31T04:57:00.603Z,1008.3
2022-07-31T04:57:41.073Z,1008.27
2022-07-31T04:58:21.551Z,1008.29
2022-07-31T04:59:02.046Z,1008.31
2022-07-31T04:59:58.261Z,1008.31
2022-07-31T05:00:22.937Z,1008.31
2022-07-31T05:01:03.456Z,1008.33
2022-07-31T05:01:43.991Z,1008.37
2022-07-31T05:02:24.422Z,1008.36
2022-07-31T05:03:04.865Z,1008.39
2022-07-31T05:03:45.368Z,1008.38
2022-07-31T05:04:26.136Z,1008.39
2022-07-31T05:05:06.344Z,1008.38
2022-07-31T05:05:46.893Z,1008.39
2022-07-31T05:06:27.376Z,1008.43
2022-07-31T05:07:07.873Z,1008.4
2022-07-31T05:07:48.369Z,1008.43
2022-07-31T05:08:28.857Z,1008.44
2022-07-31T05:09:11.513Z,1008.45
2022-07-31T05:09:49.817Z,1008.44
2022-07-31T05:10:30.274Z,1008.48
2022-07-31T05:11:10.850Z,1008.45
2022-07-31T05:11:51.347Z,1008.47
2022-07-31T05:13:12.320Z,1008.45
2022-07-31T05:13:52.781Z,1008.44
2022-07-31T05:14:33.274Z,1008.44
2022-07-31T05:15:13.757Z,1008.42
2022-07-31T05:15:54.308Z,1008.42
2022-07-31T05:16:34.757Z,1008.39
2022-07-31T05:17:15.386Z,1008.39
2022-07-31T05:17:55.752Z,1008.4
2022-07-31T05:18:36.262Z,1008.38
2022-07-31T05:19:16.753Z,1008.42
2022-07-31T05:20:37.764Z,1008.4
2022-07-31T05:21:18.210Z,1008.4
2022-07-31T05:22:02.247Z,1008.42
2022-07-31T05:22:39.155Z,1008.42
2022-07-31T05:23:19.728Z,1008.41
2022-07-31T05:24:00.389Z,1008.44
2022-07-31T05:24:40.944Z,1008.45
2022-07-31T05:25:21.467Z,1008.43
2022-07-31T05:26:01.916Z,1008.45
2022-07-31T05:26:42.380Z,1008.43
2022-07-31T05:28:03.367Z,1008.42
2022-07-31T05:28:43.803Z,1008.42
2022-07-31T05:29:24.377Z,1008.4
2022-07-31T05:30:04.850Z,1008.43
2022-07-31T05:30:45.351Z,1008.44
2022-07-31T05:31:25.860Z,1008.44
2022-07-31T05:32:06.363Z,1008.42
2022-07-31T05:32:46.853Z,1008.44
2022-07-31T05:33:27.310Z,1008.45
2022-07-31T05:34:08.031Z,1008.42
2022-07-31T05:34:48.494Z,1008.45
2022-07-31T05:35:28.953Z,1008.43
2022-07-31T05:36:09.453Z,1008.41
2022-07-31T05:36:49.997Z,1008.45
2022-07-31T05:37:30.639Z,1008.46
2022-07-31T05:38:11.794Z,1008.45
2022-07-31T05:38:51.423Z,1008.47
2022-07-31T05:39:31.864Z,1008.41
2022-07-31T05:40:12.324Z,1008.45
2022-07-31T05:40:52.817Z,1008.39
2022-07-31T05:41:33.305Z,1008.44
2022-07-31T05:42:13.803Z,1008.44
2022-07-31T05:42:54.337Z,1008.42
2022-07-31T05:43:34.734Z,1008.45
2022-07-31T05:44:15.186Z,1008.41
2022-07-31T05:44:55.624Z,1008.46
2022-07-31T05:45:36.121Z,1008.46
2022-07-31T05:46:16.601Z,1008.42
2022-07-31T05:49:45.376Z,1008.4
2022-07-31T05:50:26.027Z,1008.39
2022-07-31T05:51:06.322Z,1008.4
2022-07-31T05:51:47.080Z,1008.38
2022-07-31T05:52:27.188Z,1008.38
2022-07-31T06:31:50.076Z,1008.42
2022-07-31T06:32:30.837Z,1008.41
2022-07-31T06:33:15.866Z,1008.41
2022-07-31T06:33:52.692Z,1008.43
2022-07-31T06:34:32.248Z,1008.39
2022-07-31T06:35:12.732Z,1008.42
2022-07-31T06:35:53.210Z,1008.41
2022-07-31T06:36:33.684Z,1008.41
2022-07-31T06:37:14.164Z,1008.44
2022-07-31T06:37:54.648Z,1008.44
2022-07-31T06:38:35.197Z,1008.42
2022-07-31T06:39:15.659Z,1008.42
2022-07-31T06:39:56.623Z,1008.43
2022-07-31T06:40:36.708Z,1008.44
2022-07-31T06:41:17.227Z,1008.44
2022-07-31T06:41:57.691Z,1008.38
2022-07-31T06:42:38.180Z,1008.36
2022-07-31T06:43:18.706Z,1008.39
2022-07-31T06:43:59.206Z,1008.42
2022-07-31T06:44:43.188Z,1008.4
2022-07-31T06:45:35.645Z,1008.41
2022-07-31T06:46:00.671Z,1008.38
2022-07-31T06:46:48.963Z,1008.41
2022-07-31T06:47:21.682Z,1008.44
2022-07-31T06:48:02.238Z,1008.4
2022-07-31T06:48:42.706Z,1008.39
2022-07-31T06:49:23.249Z,1008.36
2022-07-31T06:50:03.662Z,1008.4
2022-07-31T06:50:44.213Z,1008.4
2022-07-31T06:51:32.415Z,1008.37
2022-07-31T06:52:05.883Z,1008.39
2022-07-31T06:52:45.674Z,1008.41
2022-07-31T06:53:26.149Z,1008.44
2022-07-31T06:54:06.679Z,1008.41
2022-07-31T06:54:47.132Z,1008.46
2022-07-31T06:55:27.589Z,1008.44
2022-07-31T06:56:08.118Z,1008.46
2022-07-31T06:56:48.645Z,1008.42
2022-07-31T06:57:29.099Z,1008.46
2022-07-31T06:58:09.620Z,1008.51
2022-07-31T06:58:50.223Z,1008.46
2022-07-31T06:59:39.515Z,1008.41
2022-07-31T07:00:15.245Z,1008.47
2022-07-31T07:00:51.624Z,1008.49
2022-07-31T07:01:32.255Z,1008.49
2022-07-31T07:02:12.663Z,1008.5
2022-07-31T07:02:53.085Z,1008.51
2022-07-31T07:04:14.038Z,1008.45
2022-07-31T07:04:56.731Z,1008.51
2022-07-31T07:05:35.048Z,1008.5
2022-07-31T07:06:15.613Z,1008.46
2022-07-31T07:06:56.031Z,1008.46
2022-07-31T07:07:36.583Z,1008.48
2022-07-31T07:08:17.065Z,1008.44
2022-07-31T07:08:57.540Z,1008.45
2022-07-31T07:09:38.046Z,1008.44
2022-07-31T07:10:18.630Z,1008.46
2022-07-31T07:11:39.474Z,1008.42
2022-07-31T07:12:19.997Z,1008.46
2022-07-31T07:13:00.472Z,1008.41
2022-07-31T07:13:45.449Z,1008.47
2022-07-31T07:15:53.999Z,1008.44
2022-07-31T07:16:34.424Z,1008.5
2022-07-31T07:17:14.912Z,1008.46
2022-07-31T07:17:55.327Z,1008.46
2022-07-31T07:18:35.835Z,1008.45
2022-07-31T07:19:16.325Z,1008.44
2022-07-31T07:19:56.846Z,1008.49
2022-07-31T07:20:37.398Z,1008.49
2022-07-31T07:21:58.318Z,1008.51
2022-07-31T07:22:38.800Z,1008.48
2022-07-31T07:23:19.317Z,1008.49
2022-07-31T07:23:59.820Z,1008.56
2022-07-31T07:24:40.318Z,1008.49
2022-07-31T07:25:20.910Z,1008.51
2022-07-31T07:26:01.370Z,1008.46
2022-07-31T07:26:41.909Z,1008.51
2022-07-31T07:27:22.397Z,1008.5
2022-07-31T07:28:03.768Z,1008.52
2022-07-31T07:28:44.219Z,1008.51
2022-07-31T07:29:24.750Z,1008.48
2022-07-31T07:30:05.249Z,1008.5
2022-07-31T07:30:45.784Z,1008.48
2022-07-31T07:31:26.234Z,1008.45
2022-07-31T07:32:07.014Z,1008.46
2022-07-31T07:32:47.285Z,1008.44
2022-07-31T07:33:40.303Z,1008.46
2022-07-31T07:34:08.188Z,1008.46
2022-07-31T07:34:48.664Z,1008.42
2022-07-31T07:35:33.620Z,1008.42
2022-07-31T07:36:21.844Z,1008.42
2022-07-31T07:36:50.176Z,1008.42
2022-07-31T07:37:30.650Z,1008.37
2022-07-31T07:38:11.124Z,1008.41
2022-07-31T07:38:51.589Z,1008.41
2022-07-31T07:39:32.144Z,1008.37
2022-07-31T07:40:12.620Z,1008.39
2022-07-31T07:40:53.125Z,1008.34
2022-07-31T07:42:14.145Z,1008.32
2022-07-31T07:42:54.662Z,1008.35
2022-07-31T07:43:35.623Z,1008.32
2022-07-31T07:44:16.092Z,1008.33
2022-07-31T07:44:56.517Z,1008.31
2022-07-31T07:45:37.008Z,1008.3
2022-07-31T07:46:17.549Z,1008.29
2022-07-31T07:47:54.207Z,1008.31
2022-07-31T07:48:18.993Z,1008.35
2022-07-31T07:48:59.578Z,1008.28
2022-07-31T07:49:40.005Z,1008.3
2022-07-31T07:50:20.507Z,1008.3
2022-07-31T07:51:00.996Z,1008.29
2022-07-31T07:51:58.486Z,1008.31
2022-07-31T07:52:21.972Z,1008.31
2022-07-31T07:53:02.507Z,1008.24
2022-07-31T07:53:42.962Z,1008.2
2022-07-31T07:54:23.461Z,1008.23
2022-07-31T07:55:03.954Z,1008.2
2022-07-31T07:55:44.463Z,1008.22
2022-07-31T07:56:24.929Z,1008.19
2022-07-31T07:57:05.422Z,1008.22
2022-07-31T07:57:45.930Z,1008.22
2022-07-31T07:58:26.405Z,1008.21
2022-07-31T07:59:06.893Z,1008.22
2022-07-31T07:59:47.417Z,1008.17
2022-07-31T08:00:27.938Z,1008.16
2022-07-31T08:01:08.482Z,1008.17
2022-07-31T08:01:48.910Z,1008.16
2022-07-31T08:02:29.395Z,1008.19
2022-07-31T08:03:48.026Z,1008.13
2022-07-31T08:03:52.190Z,1008.14
2022-07-31T08:04:30.871Z,1008.14
2022-07-31T08:05:11.410Z,1008.21
2022-07-31T08:05:51.848Z,1008.18
2022-07-31T08:06:32.310Z,1008.22
2022-07-31T08:07:12.833Z,1008.17
2022-07-31T08:07:53.369Z,1008.19
2022-07-31T08:08:33.892Z,1008.17
2022-07-31T08:09:14.396Z,1008.18
2022-07-31T08:09:54.857Z,1008.23
2022-07-31T08:10:35.349Z,1008.17
2022-07-31T08:11:16.854Z,1008.18
2022-07-31T08:11:56.369Z,1008.19
2022-07-31T08:12:36.812Z,1008.18
2022-07-31T08:13:17.277Z,1008.17
2022-07-31T08:13:57.757Z,1008.19
2022-07-31T08:14:38.254Z,1008.14
2022-07-31T08:15:18.720Z,1008.13
2022-07-31T08:15:59.194Z,1008.12
2022-07-31T08:16:39.741Z,1008.1
2022-07-31T08:17:20.271Z,1008.12
2022-07-31T08:18:00.779Z,1008.13
2022-07-31T08:18:41.331Z,1008.14
2022-07-31T08:19:21.739Z,1008.07
2022-07-31T08:20:02.274Z,1008.11
2022-07-31T08:20:42.769Z,1008.08
2022-07-31T08:21:23.316Z,1008.07
2022-07-31T08:22:04.087Z,1008.1
2022-07-31T08:22:44.284Z,1008.1
2022-07-31T08:23:24.714Z,1008.12
2022-07-31T08:24:05.268Z,1008.11
2022-07-31T08:25:31.154Z,1008.11
2022-07-31T08:26:06.762Z,1008.14
2022-07-31T08:26:47.224Z,1008.08
2022-07-31T08:27:28.528Z,1008.08
2022-07-31T08:28:11.148Z,1008.13
2022-07-31T08:28:50.232Z,1008.08
2022-07-31T08:29:29.211Z,1008.06
2022-07-31T08:30:09.698Z,1008.05
2022-07-31T08:30:50.160Z,1008.08
2022-07-31T08:31:30.699Z,1008.09
2022-07-31T08:32:11.190Z,1008.04
2022-07-31T08:32:51.674Z,1008.08
2022-07-31T08:33:32.183Z,1008.08
2022-07-31T08:34:12.714Z,1008.06
2022-07-31T08:34:53.235Z,1008.03
2022-07-31T08:35:33.728Z,1008.06
2022-07-31T08:36:14.176Z,1008.09
2022-07-31T08:36:54.664Z,1008.01
2022-07-31T08:37:51.340Z,1008.02
2022-07-31T08:38:15.737Z,1008.05
2022-07-31T08:38:56.394Z,1008
2022-07-31T08:39:36.717Z,1008.05
2022-07-31T08:40:57.685Z,1007.99
2022-07-31T08:41:38.280Z,1008.02
2022-07-31T08:42:18.803Z,1008.02
2022-07-31T08:43:01.105Z,1008.02
2022-07-31T08:44:01.270Z,1008.01
2022-07-31T08:44:25.702Z,1007.95
2022-07-31T08:45:00.837Z,1007.98
2022-07-31T08:45:41.236Z,1008.02
2022-07-31T08:46:21.804Z,1007.97
2022-07-31T08:47:02.285Z,1008.02
2022-07-31T08:47:42.875Z,1008
2022-07-31T08:48:23.389Z,1008.02
2022-07-31T08:49:04.043Z,1007.99
2022-07-31T08:49:44.426Z,1007.98
2022-07-31T08:51:05.389Z,1007.93
2022-07-31T08:51:50.621Z,1007.94
2022-07-31T08:52:26.413Z,1007.93
2022-07-31T08:53:06.960Z,1007.9
2022-07-31T08:53:47.407Z,1007.91
2022-07-31T08:54:27.941Z,1007.91
2022-07-31T08:55:08.522Z,1007.89
2022-07-31T08:55:55.781Z,1007.94
2022-07-31T08:56:29.511Z,1007.91
2022-07-31T08:57:12.836Z,1007.94
2022-07-31T08:57:50.459Z,1007.96
2022-07-31T08:58:30.912Z,1007.92
2022-07-31T08:59:11.405Z,1007.9
2022-07-31T08:59:52.034Z,1007.9
2022-07-31T09:00:32.470Z,1007.94
2022-07-31T09:01:13.027Z,1007.99
2022-07-31T09:01:53.449Z,1008
2022-07-31T09:02:33.931Z,1007.98
2022-07-31T09:03:14.403Z,1007.95
2022-07-31T09:03:54.936Z,1007.95
2022-07-31T09:04:35.381Z,1008
2022-07-31T09:05:15.894Z,1007.94
2022-07-31T09:05:56.359Z,1007.97
2022-07-31T09:06:36.846Z,1007.96
2022-07-31T09:07:17.380Z,1007.98
2022-07-31T09:07:57.866Z,1007.95
2022-07-31T09:08:38.462Z,1007.97
2022-07-31T09:09:18.915Z,1008.01
2022-07-31T09:09:59.419Z,1007.99
2022-07-31T09:10:39.921Z,1008.01
2022-07-31T09:11:20.423Z,1007.98
2022-07-31T09:12:01.105Z,1007.99
2022-07-31T09:12:41.553Z,1007.94
2022-07-31T09:14:03.393Z,1007.97
2022-07-31T09:14:43.071Z,1007.95
2022-07-31T09:15:23.541Z,1007.92
2022-07-31T09:16:04.021Z,1007.95
2022-07-31T09:16:44.492Z,1007.95
2022-07-31T09:17:25.062Z,1007.92
2022-07-31T09:18:05.527Z,1007.92
2022-07-31T09:18:46.023Z,1007.94
2022-07-31T09:19:50.990Z,1007.92
2022-07-31T09:20:07.117Z,1007.93
2022-07-31T09:20:47.565Z,1007.92
2022-07-31T09:21:28.080Z,1007.92
2022-07-31T09:22:10.396Z,1007.91
2022-07-31T09:22:49.051Z,1007.91
2022-07-31T09:23:29.617Z,1007.94
2022-07-31T09:24:10.101Z,1007.94
2022-07-31T09:24:50.582Z,1007.9
2022-07-31T09:25:31.123Z,1007.86
2022-07-31T09:26:11.606Z,1007.91
2022-07-31T09:26:52.126Z,1007.94
2022-07-31T09:27:32.659Z,1007.92
2022-07-31T09:28:13.131Z,1007.91
2022-07-31T09:28:53.637Z,1007.87
2022-07-31T09:29:34.099Z,1007.9
2022-07-31T09:30:14.746Z,1007.89
2022-07-31T09:30:55.424Z,1007.86
2022-07-31T09:31:35.661Z,1007.87
2022-07-31T09:32:16.179Z,1007.87
2022-07-31T09:32:56.751Z,1007.87
2022-07-31T09:33:37.284Z,1007.87
2022-07-31T09:34:58.298Z,1007.92
2022-07-31T09:35:38.762Z,1007.91
2022-07-31T09:36:19.314Z,1007.87
2022-07-31T09:36:59.743Z,1007.95
2022-07-31T09:37:40.327Z,1007.95
2022-07-31T09:38:20.836Z,1007.95
2022-07-31T09:39:04.301Z,1007.96
2022-07-31T09:39:45.893Z,1007.92
2022-07-31T09:40:22.305Z,1007.9
2022-07-31T09:41:02.850Z,1007.92
2022-07-31T09:41:56.055Z,1007.89
2022-07-31T09:42:23.824Z,1007.9
2022-07-31T09:43:04.389Z,1007.89
2022-07-31T09:43:51.522Z,1007.89
2022-07-31T09:45:06.206Z,1007.89
2022-07-31T09:45:47.908Z,1007.89
2022-07-31T09:46:26.946Z,1007.91
2022-07-31T09:47:07.649Z,1007.91
2022-07-31T09:47:47.986Z,1007.87